Terminal Aerodrome Forecast
Issued by NWS

Home | Current Version | Previous Version | Text Only | Print | Product List | Glossary On
Versions: 1 2 3 4 5 6 7 8 9 10 11 12 13 14 15 16 17 18 19 20 21 22 23 24 25 26 27 28 29 30
000
FTUS44 KFWD 280917 AAB
TAFAFW
TAF AMD
KAFW 280917Z 2809/2906 04014KT P6SM VCTS BKN020CB OVC035CB
     FM281300 36007KT P6SM BKN015
     FM281700 36011KT P6SM BKN025
     FM281900 01010KT P6SM BKN045=

USA.gov is the U.S. government's official web portal to all federal, state and local government web resources and services.